sensor_id;sensor_type;location;lat;lon;timestamp;temperature;humidity
18225;DHT22;9237;48.590;8.854;2023-09-07T00:00:32;15.40;99.90
18225;DHT22;9237;48.590;8.854;2023-09-07T00:02:59;14.40;99.90
18225;DHT22;9237;48.590;8.854;2023-09-07T00:05:26;14.40;99.90
18225;DHT22;9237;48.590;8.854;2023-09-07T00:07:52;14.50;99.90
18225;DHT22;9237;48.590;8.854;2023-09-07T00:10:19;14.30;99.90
18225;DHT22;9237;48.590;8.854;2023-09-07T00:12:46;14.20;99.90
18225;DHT22;9237;48.590;8.854;2023-09-07T00:15:14;14.10;99.90
18225;DHT22;9237;48.590;8.854;2023-09-07T00:17:41;14.10;99.90
18225;DHT22;9237;48.590;8.854;2023-09-07T00:20:08;14.00;99.90
18225;DHT22;9237;48.590;8.854;2023-09-07T00:22:40;14.00;99.90
18225;DHT22;9237;48.590;8.854;2023-09-07T00:25:07;13.90;99.90
18225;DHT22;9237;48.590;8.854;2023-09-07T00:27:34;13.80;99.90
18225;DHT22;9237;48.590;8.854;2023-09-07T00:30:01;13.70;99.90
18225;DHT22;9237;48.590;8.854;2023-09-07T00:32:32;13.60;99.90
18225;DHT22;9237;48.590;8.854;2023-09-07T00:34:59;13.40;99.90
18225;DHT22;9237;48.590;8.854;2023-09-07T00:37:25;13.40;99.90
18225;DHT22;9237;48.590;8.854;2023-09-07T00:39:52;14.50;99.90
18225;DHT22;9237;48.590;8.854;2023-09-07T00:42:19;13.40;99.90
18225;DHT22;9237;48.590;8.854;2023-09-07T00:44:46;13.40;99.90
18225;DHT22;9237;48.590;8.854;2023-09-07T00:47:13;13.40;99.90
18225;DHT22;9237;48.590;8.854;2023-09-07T00:49:41;13.30;99.90
18225;DHT22;9237;48.590;8.854;2023-09-07T00:52:08;13.40;99.90
18225;DHT22;9237;48.590;8.854;2023-09-07T00:54:36;14.20;99.90
18225;DHT22;9237;48.590;8.854;2023-09-07T00:57:04;13.10;99.90
18225;DHT22;9237;48.590;8.854;2023-09-07T00:59:32;13.10;99.90
18225;DHT22;9237;48.590;8.854;2023-09-07T01:01:59;13.00;99.90
18225;DHT22;9237;48.590;8.854;2023-09-07T01:04:25;12.90;99.90
18225;DHT22;9237;48.590;8.854;2023-09-07T01:06:56;12.90;99.90
18225;DHT22;9237;48.590;8.854;2023-09-07T01:09:29;13.10;99.90
18225;DHT22;9237;48.590;8.854;2023-09-07T01:11:57;12.80;99.90
18225;DHT22;9237;48.590;8.854;2023-09-07T01:14:23;12.80;99.90
18225;DHT22;9237;48.590;8.854;2023-09-07T01:16:50;13.20;99.90
18225;DHT22;9237;48.590;8.854;2023-09-07T01:19:17;12.50;99.90
18225;DHT22;9237;48.590;8.854;2023-09-07T01:21:45;12.60;99.90
18225;DHT22;9237;48.590;8.854;2023-09-07T01:24:14;12.70;99.90
18225;DHT22;9237;48.590;8.854;2023-09-07T01:26:41;12.80;99.90
18225;DHT22;9237;48.590;8.854;2023-09-07T01:29:08;12.90;99.90
18225;DHT22;9237;48.590;8.854;2023-09-07T01:31:35;13.30;99.90
18225;DHT22;9237;48.590;8.854;2023-09-07T01:34:03;13.00;99.90
18225;DHT22;9237;48.590;8.854;2023-09-07T01:36:31;12.90;99.90
18225;DHT22;9237;48.590;8.854;2023-09-07T01:39:00;12.80;99.90
18225;DHT22;9237;48.590;8.854;2023-09-07T01:41:26;12.60;99.90
18225;DHT22;9237;48.590;8.854;2023-09-07T01:43:54;12.50;99.90
18225;DHT22;9237;48.590;8.854;2023-09-07T01:46:21;12.50;99.90
18225;DHT22;9237;48.590;8.854;2023-09-07T01:48:48;12.60;99.90
18225;DHT22;9237;48.590;8.854;2023-09-07T01:51:14;12.50;99.90
18225;DHT22;9237;48.590;8.854;2023-09-07T01:53:41;12.40;99.90
18225;DHT22;9237;48.590;8.854;2023-09-07T01:56:09;12.40;99.90
18225;DHT22;9237;48.590;8.854;2023-09-07T01:58:36;12.40;99.90
18225;DHT22;9237;48.590;8.854;2023-09-07T02:01:03;12.30;99.90
18225;DHT22;9237;48.590;8.854;2023-09-07T02:03:29;12.30;99.90
18225;DHT22;9237;48.590;8.854;2023-09-07T02:05:56;12.20;99.90
18225;DHT22;9237;48.590;8.854;2023-09-07T02:08:23;12.20;99.90
18225;DHT22;9237;48.590;8.854;2023-09-07T02:10:49;12.10;99.90
18225;DHT22;9237;48.590;8.854;2023-09-07T02:13:17;12.90;99.90
18225;DHT22;9237;48.590;8.854;2023-09-07T02:15:57;11.90;99.90
18225;DHT22;9237;48.590;8.854;2023-09-07T02:18:24;11.70;99.90
18225;DHT22;9237;48.590;8.854;2023-09-07T02:20:51;11.70;99.90
18225;DHT22;9237;48.590;8.854;2023-09-07T02:23:18;11.60;99.90
18225;DHT22;9237;48.590;8.854;2023-09-07T02:25:44;11.90;99.90
18225;DHT22;9237;48.590;8.854;2023-09-07T02:28:11;11.60;99.90
18225;DHT22;9237;48.590;8.854;2023-09-07T02:30:39;12.50;99.90
18225;DHT22;9237;48.590;8.854;2023-09-07T02:33:06;11.60;99.90
18225;DHT22;9237;48.590;8.854;2023-09-07T02:35:32;11.60;99.90
18225;DHT22;9237;48.590;8.854;2023-09-07T02:38:03;11.60;99.90
18225;DHT22;9237;48.590;8.854;2023-09-07T02:40:29;11.70;99.90
18225;DHT22;9237;48.590;8.854;2023-09-07T02:42:56;11.90;99.90
18225;DHT22;9237;48.590;8.854;2023-09-07T02:45:23;11.90;99.90
18225;DHT22;9237;48.590;8.854;2023-09-07T02:47:51;12.00;99.90
18225;DHT22;9237;48.590;8.854;2023-09-07T02:50:18;12.00;99.90
18225;DHT22;9237;48.590;8.854;2023-09-07T02:52:44;12.20;99.90
18225;DHT22;9237;48.590;8.854;2023-09-07T02:55:11;12.10;99.90
18225;DHT22;9237;48.590;8.854;2023-09-07T02:57:38;12.00;99.90
18225;DHT22;9237;48.590;8.854;2023-09-07T03:00:06;11.80;99.90
18225;DHT22;9237;48.590;8.854;2023-09-07T03:02:36;11.80;99.90
18225;DHT22;9237;48.590;8.854;2023-09-07T03:05:05;11.70;99.90
18225;DHT22;9237;48.590;8.854;2023-09-07T03:07:33;11.60;99.90
18225;DHT22;9237;48.590;8.854;2023-09-07T03:10:00;11.60;99.90
18225;DHT22;9237;48.590;8.854;2023-09-07T03:12:27;11.50;99.90
18225;DHT22;9237;48.590;8.854;2023-09-07T03:14:54;11.50;99.90
18225;DHT22;9237;48.590;8.854;2023-09-07T03:17:20;11.40;99.90
18225;DHT22;9237;48.590;8.854;2023-09-07T03:19:47;11.40;99.90
18225;DHT22;9237;48.590;8.854;2023-09-07T03:22:15;11.40;99.90
18225;DHT22;9237;48.590;8.854;2023-09-07T03:24:42;11.40;99.90
18225;DHT22;9237;48.590;8.854;2023-09-07T03:27:09;11.40;99.90
18225;DHT22;9237;48.590;8.854;2023-09-07T03:29:36;11.50;99.90
18225;DHT22;9237;48.590;8.854;2023-09-07T03:32:04;11.40;99.90
18225;DHT22;9237;48.590;8.854;2023-09-07T03:34:31;11.30;99.90
18225;DHT22;9237;48.590;8.854;2023-09-07T03:36:58;11.30;99.90
18225;DHT22;9237;48.590;8.854;2023-09-07T03:39:26;11.20;99.90
18225;DHT22;9237;48.590;8.854;2023-09-07T03:41:53;12.30;99.90
18225;DHT22;9237;48.590;8.854;2023-09-07T03:44:20;11.20;99.90
18225;DHT22;9237;48.590;8.854;2023-09-07T03:46:47;11.90;99.90
18225;DHT22;9237;48.590;8.854;2023-09-07T03:49:13;11.30;99.90
18225;DHT22;9237;48.590;8.854;2023-09-07T03:51:40;11.40;99.90
18225;DHT22;9237;48.590;8.854;2023-09-07T03:54:07;12.30;99.90
18225;DHT22;9237;48.590;8.854;2023-09-07T03:56:35;11.60;99.90
18225;DHT22;9237;48.590;8.854;2023-09-07T03:59:01;11.60;99.90
18225;DHT22;9237;48.590;8.854;2023-09-07T04:01:28;11.60;99.90
18225;DHT22;9237;48.590;8.854;2023-09-07T04:03:55;11.50;99.90
18225;DHT22;9237;48.590;8.854;2023-09-07T04:06:22;11.40;99.90
18225;DHT22;9237;48.590;8.854;2023-09-07T04:08:49;11.30;99.90
18225;DHT22;9237;48.590;8.854;2023-09-07T04:11:16;11.20;99.90
18225;DHT22;9237;48.590;8.854;2023-09-07T04:13:44;11.10;99.90
18225;DHT22;9237;48.590;8.854;2023-09-07T04:16:10;11.00;99.90
18225;DHT22;9237;48.590;8.854;2023-09-07T04:18:37;11.10;99.90
18225;DHT22;9237;48.590;8.854;2023-09-07T04:21:05;11.20;99.90
18225;DHT22;9237;48.590;8.854;2023-09-07T04:23:32;11.20;99.90
18225;DHT22;9237;48.590;8.854;2023-09-07T04:26:05;11.20;99.90
18225;DHT22;9237;48.590;8.854;2023-09-07T04:28:32;11.10;99.90
18225;DHT22;9237;48.590;8.854;2023-09-07T04:31:00;11.00;99.90
18225;DHT22;9237;48.590;8.854;2023-09-07T04:33:29;11.00;99.90
18225;DHT22;9237;48.590;8.854;2023-09-07T04:35:56;11.00;99.90
18225;DHT22;9237;48.590;8.854;2023-09-07T04:38:23;10.80;99.90
18225;DHT22;9237;48.590;8.854;2023-09-07T04:40:49;11.40;99.90
18225;DHT22;9237;48.590;8.854;2023-09-07T04:43:16;10.60;99.90
18225;DHT22;9237;48.590;8.854;2023-09-07T04:45:46;10.60;99.90
18225;DHT22;9237;48.590;8.854;2023-09-07T04:48:14;10.50;99.90
18225;DHT22;9237;48.590;8.854;2023-09-07T04:50:41;11.30;99.90
18225;DHT22;9237;48.590;8.854;2023-09-07T04:53:08;10.80;99.90
18225;DHT22;9237;48.590;8.854;2023-09-07T04:55:37;10.90;99.90
18225;DHT22;9237;48.590;8.854;2023-09-07T04:58:04;10.90;99.90
18225;DHT22;9237;48.590;8.854;2023-09-07T05:00:31;11.00;99.90
18225;DHT22;9237;48.590;8.854;2023-09-07T05:02:57;11.00;99.90
18225;DHT22;9237;48.590;8.854;2023-09-07T05:05:25;11.90;99.90
18225;DHT22;9237;48.590;8.854;2023-09-07T05:07:52;11.00;99.90
18225;DHT22;9237;48.590;8.854;2023-09-07T05:10:19;10.90;99.90
18225;DHT22;9237;48.590;8.854;2023-09-07T05:12:46;10.80;99.90
18225;DHT22;9237;48.590;8.854;2023-09-07T05:15:13;10.70;99.90
18225;DHT22;9237;48.590;8.854;2023-09-07T05:17:40;10.80;99.90
18225;DHT22;9237;48.590;8.854;2023-09-07T05:20:07;10.80;99.90
18225;DHT22;9237;48.590;8.854;2023-09-07T05:22:36;10.90;99.90
18225;DHT22;9237;48.590;8.854;2023-09-07T05:25:05;10.90;99.90
18225;DHT22;9237;48.590;8.854;2023-09-07T05:27:34;10.90;99.90
18225;DHT22;9237;48.590;8.854;2023-09-07T05:30:00;10.90;99.90
18225;DHT22;9237;48.590;8.854;2023-09-07T05:32:27;11.00;99.90
18225;DHT22;9237;48.590;8.854;2023-09-07T05:34:54;10.90;99.90
18225;DHT22;9237;48.590;8.854;2023-09-07T05:37:21;10.90;99.90
18225;DHT22;9237;48.590;8.854;2023-09-07T05:39:49;11.00;99.90
18225;DHT22;9237;48.590;8.854;2023-09-07T05:42:15;11.30;99.90
18225;DHT22;9237;48.590;8.854;2023-09-07T05:44:42;11.70;99.90
18225;DHT22;9237;48.590;8.854;2023-09-07T05:47:09;12.20;99.90
18225;DHT22;9237;48.590;8.854;2023-09-07T05:49:36;12.10;99.90
18225;DHT22;9237;48.590;8.854;2023-09-07T05:52:03;12.70;99.90
18225;DHT22;9237;48.590;8.854;2023-09-07T05:54:30;12.50;99.90
18225;DHT22;9237;48.590;8.854;2023-09-07T05:56:58;12.70;99.90
18225;DHT22;9237;48.590;8.854;2023-09-07T05:59:24;13.00;99.90
18225;DHT22;9237;48.590;8.854;2023-09-07T06:01:51;13.30;99.90
18225;DHT22;9237;48.590;8.854;2023-09-07T06:04:18;13.60;99.90
18225;DHT22;9237;48.590;8.854;2023-09-07T06:06:45;14.20;99.90
18225;DHT22;9237;48.590;8.854;2023-09-07T06:09:12;14.20;99.90
18225;DHT22;9237;48.590;8.854;2023-09-07T06:11:38;14.70;99.90
18225;DHT22;9237;48.590;8.854;2023-09-07T06:14:06;15.20;99.90
18225;DHT22;9237;48.590;8.854;2023-09-07T06:16:33;15.60;99.90
18225;DHT22;9237;48.590;8.854;2023-09-07T06:19:00;16.00;99.90
18225;DHT22;9237;48.590;8.854;2023-09-07T06:21:27;16.40;99.90
18225;DHT22;9237;48.590;8.854;2023-09-07T06:23:53;16.80;99.90
18225;DHT22;9237;48.590;8.854;2023-09-07T06:26:20;17.20;99.90
18225;DHT22;9237;48.590;8.854;2023-09-07T06:28:47;17.50;99.90
18225;DHT22;9237;48.590;8.854;2023-09-07T06:31:15;17.80;99.90
18225;DHT22;9237;48.590;8.854;2023-09-07T06:33:42;18.10;99.90
18225;DHT22;9237;48.590;8.854;2023-09-07T06:36:09;18.30;99.90
18225;DHT22;9237;48.590;8.854;2023-09-07T06:38:36;18.50;99.90
18225;DHT22;9237;48.590;8.854;2023-09-07T06:41:02;18.30;99.90
18225;DHT22;9237;48.590;8.854;2023-09-07T06:43:30;18.30;99.90
18225;DHT22;9237;48.590;8.854;2023-09-07T06:46:02;18.40;99.90
18225;DHT22;9237;48.590;8.854;2023-09-07T06:48:30;18.20;99.90
18225;DHT22;9237;48.590;8.854;2023-09-07T06:51:01;18.30;99.90
18225;DHT22;9237;48.590;8.854;2023-09-07T06:53:28;18.10;99.90
18225;DHT22;9237;48.590;8.854;2023-09-07T06:55:57;18.30;99.90
18225;DHT22;9237;48.590;8.854;2023-09-07T06:58:24;18.30;99.90
18225;DHT22;9237;48.590;8.854;2023-09-07T07:00:51;18.40;99.90
18225;DHT22;9237;48.590;8.854;2023-09-07T07:03:18;18.40;99.90
18225;DHT22;9237;48.590;8.854;2023-09-07T07:05:46;18.60;99.90
18225;DHT22;9237;48.590;8.854;2023-09-07T07:08:13;18.80;99.90
18225;DHT22;9237;48.590;8.854;2023-09-07T07:10:39;19.00;99.90
18225;DHT22;9237;48.590;8.854;2023-09-07T07:13:06;19.30;99.90
18225;DHT22;9237;48.590;8.854;2023-09-07T07:15:33;19.70;99.90
18225;DHT22;9237;48.590;8.854;2023-09-07T07:18:00;19.90;99.90
18225;DHT22;9237;48.590;8.854;2023-09-07T07:20:33;20.30;99.90
18225;DHT22;9237;48.590;8.854;2023-09-07T07:23:01;20.60;99.90
18225;DHT22;9237;48.590;8.854;2023-09-07T07:25:28;20.70;99.90
18225;DHT22;9237;48.590;8.854;2023-09-07T07:27:56;21.20;99.90
18225;DHT22;9237;48.590;8.854;2023-09-07T07:30:26;21.70;99.90
18225;DHT22;9237;48.590;8.854;2023-09-07T07:32:53;21.70;99.90
18225;DHT22;9237;48.590;8.854;2023-09-07T07:35:19;22.00;99.90
18225;DHT22;9237;48.590;8.854;2023-09-07T07:37:46;22.10;99.90
18225;DHT22;9237;48.590;8.854;2023-09-07T07:40:14;22.30;99.90
18225;DHT22;9237;48.590;8.854;2023-09-07T07:42:41;22.70;99.90
18225;DHT22;9237;48.590;8.854;2023-09-07T07:45:09;22.90;99.90
18225;DHT22;9237;48.590;8.854;2023-09-07T07:47:36;23.10;99.90
18225;DHT22;9237;48.590;8.854;2023-09-07T07:50:03;23.20;99.90
18225;DHT22;9237;48.590;8.854;2023-09-07T07:52:29;23.70;99.90
18225;DHT22;9237;48.590;8.854;2023-09-07T07:54:56;24.10;99.90
18225;DHT22;9237;48.590;8.854;2023-09-07T07:57:24;24.50;99.90
18225;DHT22;9237;48.590;8.854;2023-09-07T07:59:51;24.80;99.90
18225;DHT22;9237;48.590;8.854;2023-09-07T08:02:18;24.70;99.90
18225;DHT22;9237;48.590;8.854;2023-09-07T08:04:45;24.90;99.90
18225;DHT22;9237;48.590;8.854;2023-09-07T08:07:12;25.10;99.90
18225;DHT22;9237;48.590;8.854;2023-09-07T08:09:39;25.30;99.90
18225;DHT22;9237;48.590;8.854;2023-09-07T08:12:06;25.50;99.90
18225;DHT22;9237;48.590;8.854;2023-09-07T08:14:35;25.50;99.90
18225;DHT22;9237;48.590;8.854;2023-09-07T08:17:02;25.80;99.90
18225;DHT22;9237;48.590;8.854;2023-09-07T08:19:28;25.90;99.90
18225;DHT22;9237;48.590;8.854;2023-09-07T08:21:57;26.00;99.90
18225;DHT22;9237;48.590;8.854;2023-09-07T08:24:24;26.00;99.90
18225;DHT22;9237;48.590;8.854;2023-09-07T08:26:50;26.20;99.90
18225;DHT22;9237;48.590;8.854;2023-09-07T08:29:20;26.50;99.90
18225;DHT22;9237;48.590;8.854;2023-09-07T08:31:50;26.70;99.90
18225;DHT22;9237;48.590;8.854;2023-09-07T08:34:17;26.60;99.90
18225;DHT22;9237;48.590;8.854;2023-09-07T08:36:46;26.50;99.90
18225;DHT22;9237;48.590;8.854;2023-09-07T08:39:15;26.30;99.90
18225;DHT22;9237;48.590;8.854;2023-09-07T08:41:42;26.70;99.90
18225;DHT22;9237;48.590;8.854;2023-09-07T08:44:10;26.60;99.90
18225;DHT22;9237;48.590;8.854;2023-09-07T08:46:37;27.10;99.90
18225;DHT22;9237;48.590;8.854;2023-09-07T08:49:06;27.30;99.90
18225;DHT22;9237;48.590;8.854;2023-09-07T08:51:34;27.30;99.90
18225;DHT22;9237;48.590;8.854;2023-09-07T08:54:03;27.60;99.90
18225;DHT22;9237;48.590;8.854;2023-09-07T08:56:30;27.70;99.90
18225;DHT22;9237;48.590;8.854;2023-09-07T08:58:57;27.80;99.90
18225;DHT22;9237;48.590;8.854;2023-09-07T09:01:23;27.80;99.90
18225;DHT22;9237;48.590;8.854;2023-09-07T09:03:50;28.30;99.90
18225;DHT22;9237;48.590;8.854;2023-09-07T09:06:20;28.50;99.90
18225;DHT22;9237;48.590;8.854;2023-09-07T09:08:49;28.70;99.90
18225;DHT22;9237;48.590;8.854;2023-09-07T09:11:17;28.70;99.90
18225;DHT22;9237;48.590;8.854;2023-09-07T09:13:44;28.30;99.80
18225;DHT22;9237;48.590;8.854;2023-09-07T09:16:12;28.60;99.90
18225;DHT22;9237;48.590;8.854;2023-09-07T09:18:47;28.90;99.60
18225;DHT22;9237;48.590;8.854;2023-09-07T09:21:14;29.10;97.80
18225;DHT22;9237;48.590;8.854;2023-09-07T09:23:43;29.60;98.30
18225;DHT22;9237;48.590;8.854;2023-09-07T09:26:11;29.30;97.20
18225;DHT22;9237;48.590;8.854;2023-09-07T09:28:39;29.40;96.40
18225;DHT22;9237;48.590;8.854;2023-09-07T09:31:06;29.40;96.00
18225;DHT22;9237;48.590;8.854;2023-09-07T09:33:37;29.70;95.70
18225;DHT22;9237;48.590;8.854;2023-09-07T09:36:05;29.70;95.20
18225;DHT22;9237;48.590;8.854;2023-09-07T09:38:33;29.80;94.30
18225;DHT22;9237;48.590;8.854;2023-09-07T09:41:01;29.60;94.30
18225;DHT22;9237;48.590;8.854;2023-09-07T09:43:29;29.60;93.70
18225;DHT22;9237;48.590;8.854;2023-09-07T09:45:56;29.80;93.40
18225;DHT22;9237;48.590;8.854;2023-09-07T09:48:23;29.60;92.50
18225;DHT22;9237;48.590;8.854;2023-09-07T09:50:50;30.00;92.00
18225;DHT22;9237;48.590;8.854;2023-09-07T09:53:18;30.20;91.80
18225;DHT22;9237;48.590;8.854;2023-09-07T09:55:46;30.60;91.10
18225;DHT22;9237;48.590;8.854;2023-09-07T09:58:14;30.80;90.70
18225;DHT22;9237;48.590;8.854;2023-09-07T10:00:43;30.50;91.00
18225;DHT22;9237;48.590;8.854;2023-09-07T10:03:13;30.60;90.40
18225;DHT22;9237;48.590;8.854;2023-09-07T10:05:44;30.70;89.10
18225;DHT22;9237;48.590;8.854;2023-09-07T10:08:13;30.70;89.40
18225;DHT22;9237;48.590;8.854;2023-09-07T10:10:41;30.90;88.00
18225;DHT22;9237;48.590;8.854;2023-09-07T10:13:09;31.10;85.60
18225;DHT22;9237;48.590;8.854;2023-09-07T10:15:37;31.00;86.00
18225;DHT22;9237;48.590;8.854;2023-09-07T10:18:05;30.60;86.20
18225;DHT22;9237;48.590;8.854;2023-09-07T10:23:17;31.00;83.60
18225;DHT22;9237;48.590;8.854;2023-09-07T10:25:47;31.20;82.90
18225;DHT22;9237;48.590;8.854;2023-09-07T10:28:21;31.50;81.90
18225;DHT22;9237;48.590;8.854;2023-09-07T10:31:03;31.30;81.50
18225;DHT22;9237;48.590;8.854;2023-09-07T10:33:31;31.70;82.10
18225;DHT22;9237;48.590;8.854;2023-09-07T10:35:57;32.10;81.00
18225;DHT22;9237;48.590;8.854;2023-09-07T10:38:25;32.60;79.50
18225;DHT22;9237;48.590;8.854;2023-09-07T10:40:55;32.10;76.80
18225;DHT22;9237;48.590;8.854;2023-09-07T10:43:24;31.10;77.90
18225;DHT22;9237;48.590;8.854;2023-09-07T10:45:51;30.80;77.90
18225;DHT22;9237;48.590;8.854;2023-09-07T10:48:19;31.40;78.70
18225;DHT22;9237;48.590;8.854;2023-09-07T10:50:47;32.00;77.80
18225;DHT22;9237;48.590;8.854;2023-09-07T10:53:14;32.40;76.10
18225;DHT22;9237;48.590;8.854;2023-09-07T10:55:41;32.00;75.40
18225;DHT22;9237;48.590;8.854;2023-09-07T10:58:09;32.20;75.90
18225;DHT22;9237;48.590;8.854;2023-09-07T11:00:36;31.80;73.70
18225;DHT22;9237;48.590;8.854;2023-09-07T11:03:07;31.40;75.50
18225;DHT22;9237;48.590;8.854;2023-09-07T11:05:37;32.00;74.80
18225;DHT22;9237;48.590;8.854;2023-09-07T11:08:05;31.90;75.30
18225;DHT22;9237;48.590;8.854;2023-09-07T11:10:33;31.50;73.90
18225;DHT22;9237;48.590;8.854;2023-09-07T11:13:02;31.00;76.20
18225;DHT22;9237;48.590;8.854;2023-09-07T11:15:30;32.00;74.80
18225;DHT22;9237;48.590;8.854;2023-09-07T11:17:57;32.40;75.60
18225;DHT22;9237;48.590;8.854;2023-09-07T11:20:24;32.80;71.70
18225;DHT22;9237;48.590;8.854;2023-09-07T11:22:53;32.30;71.00
18225;DHT22;9237;48.590;8.854;2023-09-07T11:25:20;32.90;72.50
18225;DHT22;9237;48.590;8.854;2023-09-07T11:27:47;33.10;71.70
18225;DHT22;9237;48.590;8.854;2023-09-07T11:30:13;32.10;71.80
18225;DHT22;9237;48.590;8.854;2023-09-07T11:32:40;32.70;72.20
18225;DHT22;9237;48.590;8.854;2023-09-07T11:35:09;33.10;72.70
18225;DHT22;9237;48.590;8.854;2023-09-07T11:37:36;32.50;72.50
18225;DHT22;9237;48.590;8.854;2023-09-07T11:40:05;32.30;74.10
18225;DHT22;9237;48.590;8.854;2023-09-07T11:42:36;31.40;71.80
18225;DHT22;9237;48.590;8.854;2023-09-07T11:45:05;31.00;75.30
18225;DHT22;9237;48.590;8.854;2023-09-07T11:47:32;30.90;74.80
18225;DHT22;9237;48.590;8.854;2023-09-07T11:50:00;30.80;75.30
18225;DHT22;9237;48.590;8.854;2023-09-07T11:52:26;30.50;75.60
18225;DHT22;9237;48.590;8.854;2023-09-07T11:54:53;29.60;77.00
18225;DHT22;9237;48.590;8.854;2023-09-07T11:57:21;29.10;78.20
18225;DHT22;9237;48.590;8.854;2023-09-07T11:59:48;29.00;77.00
18225;DHT22;9237;48.590;8.854;2023-09-07T12:02:15;28.90;78.50
18225;DHT22;9237;48.590;8.854;2023-09-07T12:04:43;29.00;78.50
18225;DHT22;9237;48.590;8.854;2023-09-07T12:07:10;29.00;80.00
18225;DHT22;9237;48.590;8.854;2023-09-07T12:09:37;29.10;78.80
18225;DHT22;9237;48.590;8.854;2023-09-07T12:12:04;29.20;79.00
18225;DHT22;9237;48.590;8.854;2023-09-07T12:14:32;28.90;79.60
18225;DHT22;9237;48.590;8.854;2023-09-07T12:16:59;28.90;80.10
18225;DHT22;9237;48.590;8.854;2023-09-07T12:19:26;28.80;79.70
18225;DHT22;9237;48.590;8.854;2023-09-07T12:21:53;28.50;80.20
18225;DHT22;9237;48.590;8.854;2023-09-07T12:24:20;29.20;78.30
18225;DHT22;9237;48.590;8.854;2023-09-07T12:26:46;29.80;78.10
18225;DHT22;9237;48.590;8.854;2023-09-07T12:29:13;30.00;76.00
18225;DHT22;9237;48.590;8.854;2023-09-07T12:31:41;30.20;76.10
18225;DHT22;9237;48.590;8.854;2023-09-07T12:34:08;31.60;72.80
18225;DHT22;9237;48.590;8.854;2023-09-07T12:36:35;32.30;69.10
18225;DHT22;9237;48.590;8.854;2023-09-07T12:39:01;32.00;69.40
18225;DHT22;9237;48.590;8.854;2023-09-07T12:41:30;31.40;71.20
18225;DHT22;9237;48.590;8.854;2023-09-07T12:43:57;32.20;69.20
18225;DHT22;9237;48.590;8.854;2023-09-07T12:46:23;32.70;67.50
18225;DHT22;9237;48.590;8.854;2023-09-07T12:48:51;33.70;66.40
18225;DHT22;9237;48.590;8.854;2023-09-07T12:51:18;33.40;65.60
18225;DHT22;9237;48.590;8.854;2023-09-07T12:53:45;33.30;65.40
18225;DHT22;9237;48.590;8.854;2023-09-07T12:56:11;33.00;65.50
18225;DHT22;9237;48.590;8.854;2023-09-07T12:58:39;33.50;64.30
18225;DHT22;9237;48.590;8.854;2023-09-07T13:01:05;33.20;65.80
18225;DHT22;9237;48.590;8.854;2023-09-07T13:03:35;32.80;66.20
18225;DHT22;9237;48.590;8.854;2023-09-07T13:06:03;32.50;65.10
18225;DHT22;9237;48.590;8.854;2023-09-07T13:08:30;32.30;66.60
18225;DHT22;9237;48.590;8.854;2023-09-07T13:10:57;31.40;68.40
18225;DHT22;9237;48.590;8.854;2023-09-07T13:13:23;31.40;67.10
18225;DHT22;9237;48.590;8.854;2023-09-07T13:15:54;32.70;68.90
18225;DHT22;9237;48.590;8.854;2023-09-07T13:18:21;33.00;64.20
18225;DHT22;9237;48.590;8.854;2023-09-07T13:20:48;32.80;64.90
18225;DHT22;9237;48.590;8.854;2023-09-07T13:23:18;33.20;63.30
18225;DHT22;9237;48.590;8.854;2023-09-07T13:25:45;33.40;62.80
18225;DHT22;9237;48.590;8.854;2023-09-07T13:28:12;33.20;62.90
18225;DHT22;9237;48.590;8.854;2023-09-07T13:30:38;33.50;62.10
18225;DHT22;9237;48.590;8.854;2023-09-07T13:33:05;33.70;61.20
18225;DHT22;9237;48.590;8.854;2023-09-07T13:35:33;34.70;59.40
18225;DHT22;9237;48.590;8.854;2023-09-07T13:38:00;34.00;59.50
18225;DHT22;9237;48.590;8.854;2023-09-07T13:40:28;33.80;60.40
18225;DHT22;9237;48.590;8.854;2023-09-07T13:42:55;34.70;59.40
18225;DHT22;9237;48.590;8.854;2023-09-07T13:45:22;34.40;58.50
18225;DHT22;9237;48.590;8.854;2023-09-07T13:47:49;33.30;61.30
18225;DHT22;9237;48.590;8.854;2023-09-07T13:50:16;32.20;62.50
18225;DHT22;9237;48.590;8.854;2023-09-07T13:52:42;33.20;65.10
18225;DHT22;9237;48.590;8.854;2023-09-07T13:55:09;32.80;62.50
18225;DHT22;9237;48.590;8.854;2023-09-07T13:57:38;32.60;63.60
18225;DHT22;9237;48.590;8.854;2023-09-07T14:00:05;31.90;64.10
18225;DHT22;9237;48.590;8.854;2023-09-07T14:02:32;32.40;63.30
18225;DHT22;9237;48.590;8.854;2023-09-07T14:04:59;33.90;60.80
18225;DHT22;9237;48.590;8.854;2023-09-07T14:07:26;32.70;60.00
18225;DHT22;9237;48.590;8.854;2023-09-07T14:09:54;32.40;61.50
18225;DHT22;9237;48.590;8.854;2023-09-07T14:12:21;34.00;60.00
18225;DHT22;9237;48.590;8.854;2023-09-07T14:14:50;34.70;57.70
18225;DHT22;9237;48.590;8.854;2023-09-07T14:17:16;34.40;57.20
18225;DHT22;9237;48.590;8.854;2023-09-07T14:19:43;32.90;58.80
18225;DHT22;9237;48.590;8.854;2023-09-07T14:22:11;32.80;59.40
18225;DHT22;9237;48.590;8.854;2023-09-07T14:24:38;32.90;60.20
18225;DHT22;9237;48.590;8.854;2023-09-07T14:27:05;33.20;59.10
18225;DHT22;9237;48.590;8.854;2023-09-07T14:29:31;32.60;60.00
18225;DHT22;9237;48.590;8.854;2023-09-07T14:32:00;32.40;61.20
18225;DHT22;9237;48.590;8.854;2023-09-07T14:34:27;31.80;61.80
18225;DHT22;9237;48.590;8.854;2023-09-07T14:36:54;32.60;59.10
18225;DHT22;9237;48.590;8.854;2023-09-07T14:39:21;33.00;58.90
18225;DHT22;9237;48.590;8.854;2023-09-07T14:41:49;31.80;59.60
18225;DHT22;9237;48.590;8.854;2023-09-07T14:44:18;32.40;59.70
18225;DHT22;9237;48.590;8.854;2023-09-07T14:46:45;32.20;58.40
18225;DHT22;9237;48.590;8.854;2023-09-07T14:49:16;32.90;57.60
18225;DHT22;9237;48.590;8.854;2023-09-07T14:51:43;32.60;58.20
18225;DHT22;9237;48.590;8.854;2023-09-07T14:54:10;32.60;57.80
18225;DHT22;9237;48.590;8.854;2023-09-07T14:56:37;33.30;56.50
18225;DHT22;9237;48.590;8.854;2023-09-07T14:59:05;34.10;55.50
18225;DHT22;9237;48.590;8.854;2023-09-07T15:01:32;34.50;54.50
18225;DHT22;9237;48.590;8.854;2023-09-07T15:03:59;33.30;55.90
18225;DHT22;9237;48.590;8.854;2023-09-07T15:06:27;31.90;57.60
18225;DHT22;9237;48.590;8.854;2023-09-07T15:08:54;32.10;58.20
18225;DHT22;9237;48.590;8.854;2023-09-07T15:11:22;32.10;58.80
18225;DHT22;9237;48.590;8.854;2023-09-07T15:13:49;32.50;57.90
18225;DHT22;9237;48.590;8.854;2023-09-07T15:16:18;32.00;57.70
18225;DHT22;9237;48.590;8.854;2023-09-07T15:18:45;32.30;57.90
18225;DHT22;9237;48.590;8.854;2023-09-07T15:21:11;33.60;55.70
18225;DHT22;9237;48.590;8.854;2023-09-07T15:23:39;33.40;55.80
18225;DHT22;9237;48.590;8.854;2023-09-07T15:26:07;33.60;54.80
18225;DHT22;9237;48.590;8.854;2023-09-07T15:28:34;33.20;55.00
18225;DHT22;9237;48.590;8.854;2023-09-07T15:31:03;33.50;54.90
18225;DHT22;9237;48.590;8.854;2023-09-07T15:33:30;33.90;54.60
18225;DHT22;9237;48.590;8.854;2023-09-07T15:36:00;32.80;56.00
18225;DHT22;9237;48.590;8.854;2023-09-07T15:38:27;32.50;56.40
18225;DHT22;9237;48.590;8.854;2023-09-07T15:40:56;32.60;56.00
18225;DHT22;9237;48.590;8.854;2023-09-07T15:43:24;32.80;56.80
18225;DHT22;9237;48.590;8.854;2023-09-07T15:45:52;32.50;56.20
18225;DHT22;9237;48.590;8.854;2023-09-07T15:48:19;32.80;56.30